createdAt,value
2018-09-06T00:00:11.821Z,44.67
2018-09-06T00:00:45.883Z,41.97
2018-09-06T00:01:20.080Z,41.70
2018-09-06T00:01:54.165Z,41.43
2018-09-06T00:02:28.146Z,43.60
2018-09-06T00:03:03.686Z,42.40
2018-09-06T00:03:39.633Z,45.80
2018-09-06T00:04:13.723Z,43.30
2018-09-06T00:04:47.652Z,44.17
2018-09-06T00:05:21.734Z,45.07
2018-09-06T00:06:10.991Z,43.17
2018-09-06T00:06:45.083Z,43.57
2018-09-06T00:07:19.818Z,42.40
2018-09-06T00:07:54.050Z,44.00
2018-09-06T00:08:28.030Z,44.30
2018-09-06T00:09:02.972Z,43.67
2018-09-06T00:09:37.071Z,44.73
2018-09-06T00:10:11.000Z,43.98
2018-09-06T00:10:44.963Z,45.37
2018-09-06T00:11:19.205Z,45.10
2018-09-06T00:11:53.606Z,44.45
2018-09-06T00:12:27.555Z,45.80
2018-09-06T00:13:01.326Z,44.83
2018-09-06T00:13:35.294Z,45.43
2018-09-06T00:14:09.301Z,43.57
2018-09-06T00:14:44.274Z,44.07
2018-09-06T00:15:18.650Z,45.13
2018-09-06T00:15:52.523Z,42.97
2018-09-06T00:16:26.356Z,44.33
2018-09-06T00:17:00.534Z,44.20
2018-09-06T00:17:34.308Z,44.13
2018-09-06T00:18:08.197Z,45.20
2018-09-06T00:18:42.188Z,43.33
2018-09-06T00:19:16.081Z,45.40
2018-09-06T00:19:50.245Z,47.50
2018-09-06T00:20:24.150Z,47.13
2018-09-06T00:20:58.279Z,42.30
2018-09-06T00:21:32.173Z,42.60
2018-09-06T00:22:08.056Z,47.00
2018-09-06T00:22:43.812Z,45.17
2018-09-06T00:23:17.964Z,43.33
2018-09-06T00:23:51.811Z,44.47
2018-09-06T00:24:25.800Z,45.20
2018-09-06T00:24:59.763Z,43.57
2018-09-06T00:25:34.184Z,46.30
2018-09-06T00:26:12.374Z,44.10
2018-09-06T00:26:46.362Z,44.07
2018-09-06T00:27:20.904Z,43.43
2018-09-06T00:27:55.457Z,44.93
2018-09-06T00:28:29.426Z,43.67
2018-09-06T00:29:03.529Z,44.80
2018-09-06T00:29:37.401Z,45.17
2018-09-06T00:30:11.275Z,45.50
2018-09-06T00:30:45.178Z,43.43
2018-09-06T00:31:19.243Z,41.57
2018-09-06T00:31:53.571Z,43.90
2018-09-06T00:32:27.540Z,43.20
2018-09-06T00:33:01.409Z,45.10
2018-09-06T00:33:35.390Z,45.00
2018-09-06T00:34:09.151Z,43.70
2018-09-06T00:34:42.940Z,42.07
2018-09-06T00:35:16.872Z,42.87
2018-09-06T00:35:50.843Z,42.00
2018-09-06T00:36:24.798Z,43.93
2018-09-06T00:36:58.723Z,43.98
2018-09-06T00:37:32.735Z,43.17
2018-09-06T00:38:06.548Z,43.10
2018-09-06T00:38:40.412Z,41.80
2018-09-06T00:39:14.193Z,41.50
2018-09-06T00:39:47.996Z,44.03
2018-09-06T00:40:21.955Z,43.27
2018-09-06T00:40:56.128Z,43.97
2018-09-06T00:41:29.970Z,41.73
2018-09-06T00:42:03.905Z,42.50
2018-09-06T00:42:38.054Z,42.37
2018-09-06T00:43:11.877Z,43.10
2018-09-06T00:43:45.807Z,44.50
2018-09-06T00:44:20.463Z,42.60
2018-09-06T00:44:54.314Z,41.97
2018-09-06T00:45:28.219Z,41.73
2018-09-06T00:46:03.015Z,42.43
2018-09-06T00:46:37.253Z,42.20
2018-09-06T00:47:11.171Z,42.33
2018-09-06T00:47:45.126Z,42.13
2018-09-06T00:48:18.913Z,40.53
2018-09-06T00:48:52.833Z,40.90
2018-09-06T00:49:26.728Z,41.40
2018-09-06T00:50:00.883Z,39.70
2018-09-06T00:50:37.461Z,38.67
2018-09-06T00:51:11.274Z,39.47
2018-09-06T00:51:45.018Z,41.33
2018-09-06T00:52:18.982Z,39.98
2018-09-06T00:52:53.080Z,37.13
2018-09-06T00:53:27.200Z,36.90
2018-09-06T00:54:01.309Z,36.20
2018-09-06T00:54:35.233Z,34.97
2018-09-06T00:55:09.163Z,37.03
2018-09-06T00:55:42.920Z,35.40
2018-09-06T00:56:16.875Z,37.23
2018-09-06T00:56:51.040Z,36.30
2018-09-06T00:57:25.096Z,36.30
2018-09-06T00:57:58.886Z,35.60
2018-09-06T00:58:32.927Z,34.80
2018-09-06T00:59:06.702Z,35.00
2018-09-06T00:59:40.595Z,34.10
2018-09-06T01:00:14.533Z,35.60
2018-09-06T01:00:48.342Z,33.80
2018-09-06T01:01:22.726Z,35.33
2018-09-06T01:01:56.810Z,34.90
2018-09-06T01:02:30.678Z,35.63
2018-09-06T01:03:04.604Z,34.67
2018-09-06T01:03:38.641Z,36.30
2018-09-06T01:04:12.548Z,34.83
2018-09-06T01:04:46.487Z,35.43
2018-09-06T01:05:20.301Z,34.93
2018-09-06T01:05:54.238Z,34.97
2018-09-06T01:06:28.067Z,34.53
2018-09-06T01:07:02.005Z,34.07
2018-09-06T01:07:35.899Z,33.73
2018-09-06T01:08:09.675Z,33.37
2018-09-06T01:08:43.576Z,33.27
2018-09-06T01:09:17.409Z,35.20
2018-09-06T01:09:51.144Z,35.10
2018-09-06T01:10:25.037Z,33.33
2018-09-06T01:10:59.016Z,33.70
2018-09-06T01:11:32.931Z,33.63
2018-09-06T01:12:06.913Z,35.27
2018-09-06T01:12:41.683Z,33.27
2018-09-06T01:13:15.599Z,33.97
2018-09-06T01:13:49.647Z,34.00
2018-09-06T01:14:23.818Z,32.67
2018-09-06T01:14:57.775Z,34.80
2018-09-06T01:15:31.682Z,34.53
2018-09-06T01:16:05.812Z,33.80
2018-09-06T01:16:39.749Z,33.57
2018-09-06T01:17:13.646Z,34.17
2018-09-06T01:17:47.444Z,33.60
2018-09-06T01:18:21.374Z,34.07
2018-09-06T01:18:55.350Z,35.30
2018-09-06T01:19:29.508Z,34.20
2018-09-06T01:20:03.531Z,35.77
2018-09-06T01:20:37.627Z,34.00
2018-09-06T01:21:11.564Z,32.88
2018-09-06T01:21:45.885Z,32.83
2018-09-06T01:22:19.786Z,35.48
2018-09-06T01:22:53.596Z,32.40
2018-09-06T01:23:27.560Z,32.30
2018-09-06T01:24:01.423Z,32.60
2018-09-06T01:24:35.195Z,32.70
2018-09-06T01:25:09.134Z,32.27
2018-09-06T01:25:47.033Z,32.67
2018-09-06T01:26:20.804Z,31.03
2018-09-06T01:26:54.721Z,30.00
2018-09-06T01:27:28.612Z,30.60
2018-09-06T01:28:02.569Z,32.63
2018-09-06T01:28:36.222Z,31.73
2018-09-06T01:29:10.247Z,31.80
2018-09-06T01:29:44.130Z,30.60
2018-09-06T01:30:17.901Z,28.23
2018-09-06T01:30:51.778Z,31.13
2018-09-06T01:31:25.595Z,29.27
2018-09-06T01:32:00.106Z,31.17
2018-09-06T01:32:34.128Z,30.83
2018-09-06T01:33:07.889Z,30.33
2018-09-06T01:33:41.817Z,31.07
2018-09-06T01:34:15.630Z,30.60
2018-09-06T01:34:49.913Z,31.03
2018-09-06T01:35:23.735Z,28.83
2018-09-06T01:36:03.235Z,29.27
2018-09-06T01:36:42.787Z,29.63
2018-09-06T01:37:16.535Z,28.93
2018-09-06T01:37:50.397Z,28.03
2018-09-06T01:38:24.298Z,28.47
2018-09-06T01:38:58.377Z,27.73
2018-09-06T01:39:32.497Z,28.80
2018-09-06T01:40:06.445Z,28.00
2018-09-06T01:40:40.316Z,29.48
2018-09-06T01:41:14.363Z,28.87
2018-09-06T01:41:48.088Z,29.97
2018-09-06T01:42:21.878Z,27.27
2018-09-06T01:42:55.719Z,28.63
2018-09-06T01:43:29.716Z,29.27
2018-09-06T01:44:04.379Z,27.90
2018-09-06T01:44:38.543Z,26.50
2018-09-06T01:45:12.280Z,25.00
2018-09-06T01:45:46.031Z,27.47
2018-09-06T01:46:19.978Z,26.60
2018-09-06T01:46:54.918Z,27.27
2018-09-06T01:47:28.835Z,26.13
2018-09-06T01:48:02.705Z,26.83
2018-09-06T01:48:36.666Z,27.47
2018-09-06T01:49:10.634Z,26.07
2018-09-06T01:49:44.846Z,26.33
2018-09-06T01:50:18.704Z,27.00
2018-09-06T01:50:52.510Z,27.33
2018-09-06T01:51:28.092Z,26.67
2018-09-06T01:52:02.631Z,27.07
2018-09-06T01:52:36.711Z,26.57
2018-09-06T01:53:10.662Z,26.27
2018-09-06T01:53:44.457Z,26.00
2018-09-06T01:54:18.292Z,26.87
2018-09-06T01:54:52.131Z,26.40
2018-09-06T01:55:26.021Z,26.90
2018-09-06T01:55:59.949Z,28.07
2018-09-06T01:56:33.741Z,26.87
2018-09-06T01:57:07.746Z,27.40
2018-09-06T01:57:41.632Z,30.47
2018-09-06T01:58:15.358Z,25.90
2018-09-06T01:58:48.996Z,29.53
2018-09-06T01:59:22.769Z,28.37
2018-09-06T01:59:56.498Z,29.07
2018-09-06T02:00:30.368Z,30.20
2018-09-06T02:01:04.265Z,30.67
2018-09-06T02:01:38.392Z,30.83
2018-09-06T02:02:12.271Z,29.87
2018-09-06T02:02:46.219Z,33.23
2018-09-06T02:03:20.318Z,32.93
2018-09-06T02:03:54.801Z,30.93
2018-09-06T02:04:28.650Z,30.70
2018-09-06T02:05:03.798Z,31.27
2018-09-06T02:05:38.026Z,30.50
2018-09-06T02:06:12.006Z,32.43
2018-09-06T02:06:45.940Z,34.33
2018-09-06T02:07:20.067Z,35.13
2018-09-06T02:07:54.160Z,32.93
2018-09-06T02:08:28.091Z,36.53
2018-09-06T02:09:02.435Z,36.50
2018-09-06T02:09:36.544Z,37.37
2018-09-06T02:10:10.586Z,33.23
2018-09-06T02:10:44.499Z,35.67
2018-09-06T02:11:18.453Z,35.27
2018-09-06T02:11:52.313Z,38.57
2018-09-06T02:12:26.272Z,36.80
2018-09-06T02:13:00.144Z,38.30
2018-09-06T02:13:34.133Z,36.70
2018-09-06T02:14:08.186Z,41.27
2018-09-06T02:14:42.017Z,35.37
2018-09-06T02:15:15.769Z,34.63
2018-09-06T02:15:49.662Z,36.60
2018-09-06T02:16:23.540Z,35.77
2018-09-06T02:16:57.290Z,36.30
2018-09-06T02:17:31.250Z,38.17
2018-09-06T02:18:05.483Z,37.87
2018-09-06T02:18:39.224Z,39.20
2018-09-06T02:19:13.325Z,37.63
2018-09-06T02:19:47.129Z,39.67
2018-09-06T02:20:20.908Z,40.83
2018-09-06T02:20:54.635Z,41.37
2018-09-06T02:21:28.592Z,38.53
2018-09-06T02:22:02.307Z,39.53
2018-09-06T02:22:36.344Z,42.23
2018-09-06T02:23:10.624Z,41.03
2018-09-06T02:23:44.516Z,39.97
2018-09-06T02:24:18.455Z,40.23
2018-09-06T02:24:52.309Z,39.57
2018-09-06T02:25:26.203Z,44.27
2018-09-06T02:25:59.900Z,42.87
2018-09-06T02:26:33.768Z,45.03
2018-09-06T02:27:07.836Z,44.47
2018-09-06T02:27:41.964Z,47.83
2018-09-06T02:28:15.832Z,49.20
2018-09-06T02:28:49.787Z,41.77
2018-09-06T02:29:23.748Z,46.87
2018-09-06T02:29:57.608Z,42.67
2018-09-06T02:30:31.515Z,43.43
2018-09-06T02:31:05.317Z,44.20
2018-09-06T02:31:39.221Z,41.13
2018-09-06T02:32:13.286Z,41.57
2018-09-06T02:32:47.052Z,44.30
2018-09-06T02:33:21.151Z,43.57
2018-09-06T02:33:54.915Z,41.60
2018-09-06T02:34:28.747Z,46.23
2018-09-06T02:35:02.507Z,41.63
2018-09-06T02:35:36.601Z,48.27
2018-09-06T02:36:10.768Z,51.90
2018-09-06T02:36:44.766Z,55.60
2018-09-06T02:37:18.819Z,51.97
2018-09-06T02:37:52.731Z,53.97
2018-09-06T02:38:26.434Z,63.07
2018-09-06T02:39:00.411Z,61.30
2018-09-06T02:39:34.313Z,59.63
2018-09-06T02:40:11.130Z,55.20
2018-09-06T02:40:45.136Z,54.55
2018-09-06T02:41:19.497Z,51.73
2018-09-06T02:41:53.511Z,48.97
2018-09-06T02:42:27.288Z,47.98
2018-09-06T02:43:01.198Z,47.97
2018-09-06T02:43:34.872Z,46.90
2018-09-06T02:44:09.228Z,47.20
2018-09-06T02:44:43.210Z,45.20
2018-09-06T02:45:17.111Z,43.20
2018-09-06T02:45:51.050Z,44.47
2018-09-06T02:46:24.962Z,44.70
2018-09-06T02:46:58.746Z,48.67
2018-09-06T02:47:32.624Z,47.30
2018-09-06T02:48:06.406Z,48.33
2018-09-06T02:48:41.571Z,46.27
2018-09-06T02:49:17.737Z,45.87
2018-09-06T02:49:57.380Z,45.33
2018-09-06T02:50:37.003Z,47.20
2018-09-06T02:51:14.535Z,48.27
2018-09-06T02:51:48.384Z,49.93
2018-09-06T02:52:22.480Z,48.63
2018-09-06T02:52:56.642Z,48.27
2018-09-06T02:53:31.692Z,47.93
2018-09-06T02:54:05.672Z,47.73
2018-09-06T02:54:39.568Z,49.30
2018-09-06T02:55:13.539Z,48.90
2018-09-06T02:55:47.564Z,49.13
2018-09-06T02:56:21.418Z,46.47
2018-09-06T02:56:55.219Z,46.37
2018-09-06T02:57:29.210Z,46.07
2018-09-06T02:58:03.064Z,53.43
2018-09-06T02:58:37.222Z,57.33
2018-09-06T02:59:11.611Z,51.57
2018-09-06T02:59:46.626Z,57.07
2018-09-06T03:00:26.116Z,62.93
2018-09-06T03:00:59.889Z,63.53
2018-09-06T03:01:33.909Z,80.97
2018-09-06T03:02:07.896Z,66.33
2018-09-06T03:02:41.784Z,62.03
2018-09-06T03:03:16.002Z,66.87
2018-09-06T03:03:49.998Z,59.57
2018-09-06T03:04:23.746Z,53.30
2018-09-06T03:04:57.669Z,58.43
2018-09-06T03:05:31.919Z,71.20
2018-09-06T03:06:06.275Z,76.60
2018-09-06T03:06:40.033Z,74.10
2018-09-06T03:07:14.085Z,55.90
2018-09-06T03:07:48.785Z,71.07
2018-09-06T03:08:23.684Z,78.77
2018-09-06T03:08:57.684Z,87.60
2018-09-06T03:09:31.563Z,99.40
2018-09-06T03:10:05.461Z,89.73
2018-09-06T03:10:42.272Z,87.43
2018-09-06T03:11:19.478Z,89.20
2018-09-06T03:12:56.661Z,82.67
2018-09-06T03:13:30.707Z,64.60
2018-09-06T03:14:04.593Z,96.83
2018-09-06T03:14:38.459Z,64.77
2018-09-06T03:15:12.609Z,70.03
2018-09-06T03:15:46.787Z,86.33
2018-09-06T03:16:20.881Z,67.93
2018-09-06T03:16:54.755Z,70.37
2018-09-06T03:17:28.573Z,64.20
2018-09-06T03:18:02.693Z,61.43
2018-09-06T03:18:36.509Z,78.10
2018-09-06T03:19:10.624Z,80.63
2018-09-06T03:19:44.482Z,93.27
2018-09-06T03:20:18.451Z,68.10
2018-09-06T03:20:52.229Z,66.20
2018-09-06T03:21:26.037Z,57.93
2018-09-06T03:22:00.000Z,56.60
2018-09-06T03:22:34.232Z,56.33
2018-09-06T03:23:08.168Z,58.90
2018-09-06T03:23:41.984Z,58.17
2018-09-06T03:24:16.425Z,62.73
2018-09-06T03:24:50.442Z,55.17
2018-09-06T03:25:24.248Z,52.37
2018-09-06T03:25:58.011Z,58.77
2018-09-06T03:26:31.778Z,71.57
2018-09-06T03:27:05.481Z,63.87
2018-09-06T03:27:39.479Z,83.43
2018-09-06T03:28:13.650Z,65.63
2018-09-06T03:28:49.028Z,68.03
2018-09-06T03:29:23.127Z,62.80
2018-09-06T03:29:57.152Z,68.07
2018-09-06T03:30:31.028Z,61.43
2018-09-06T03:31:05.013Z,63.00
2018-09-06T03:31:39.007Z,59.50
2018-09-06T03:32:12.874Z,57.37
2018-09-06T03:32:46.919Z,58.93
2018-09-06T03:33:21.068Z,61.87
2018-09-06T03:33:55.215Z,54.60
2018-09-06T03:34:28.850Z,56.47
2018-09-06T03:35:02.789Z,69.10
2018-09-06T03:35:36.547Z,60.27
2018-09-06T03:36:10.742Z,56.77
2018-09-06T03:36:44.471Z,80.00
2018-09-06T03:37:18.592Z,73.40
2018-09-06T03:37:52.568Z,84.10
2018-09-06T03:38:26.422Z,95.67
2018-09-06T03:39:00.360Z,88.63
2018-09-06T03:39:34.187Z,76.10
2018-09-06T03:40:08.029Z,65.17
2018-09-06T03:40:41.766Z,94.17
2018-09-06T03:41:15.657Z,86.17
2018-09-06T03:41:49.841Z,73.10
2018-09-06T03:42:23.885Z,72.47
2018-09-06T03:42:57.733Z,118.23
2018-09-06T03:43:31.558Z,78.10
2018-09-06T03:44:05.446Z,73.17
2018-09-06T03:44:39.266Z,90.57
2018-09-06T03:45:13.120Z,83.73
2018-09-06T03:45:46.940Z,109.73
2018-09-06T03:46:20.876Z,78.33
2018-09-06T03:46:54.947Z,73.70
2018-09-06T03:47:28.750Z,79.30
2018-09-06T03:48:02.489Z,80.70
2018-09-06T03:48:36.426Z,68.30
2018-09-06T03:49:10.135Z,69.63
2018-09-06T03:49:43.928Z,63.23
2018-09-06T03:50:17.917Z,63.27
2018-09-06T03:50:51.844Z,60.73
2018-09-06T03:51:25.714Z,66.50
2018-09-06T03:51:59.698Z,65.03
2018-09-06T03:52:33.469Z,77.83
2018-09-06T03:53:07.205Z,88.33
2018-09-06T03:53:40.971Z,71.97
2018-09-06T03:54:14.781Z,87.57
2018-09-06T03:54:48.706Z,82.93
2018-09-06T03:55:22.891Z,75.60
2018-09-06T03:55:56.923Z,74.43
2018-09-06T03:56:30.637Z,68.43
2018-09-06T03:57:05.271Z,74.33
2018-09-06T03:57:39.208Z,103.10
2018-09-06T03:58:13.137Z,89.33
2018-09-06T03:58:46.743Z,73.27
2018-09-06T03:59:20.751Z,84.90
2018-09-06T03:59:54.770Z,75.53
2018-09-06T04:00:28.605Z,71.47
2018-09-06T04:01:02.282Z,70.10
2018-09-06T04:01:36.243Z,62.93
2018-09-06T04:02:09.996Z,59.63
2018-09-06T04:02:43.815Z,62.47
2018-09-06T04:03:17.504Z,58.97
2018-09-06T04:03:51.566Z,62.47
2018-09-06T04:04:25.694Z,66.77
2018-09-06T04:04:59.858Z,57.27
2018-09-06T04:05:33.537Z,58.40
2018-09-06T04:06:07.542Z,55.03
2018-09-06T04:06:41.318Z,54.07
2018-09-06T04:07:15.246Z,60.13
2018-09-06T04:07:49.884Z,62.20
2018-09-06T04:08:23.951Z,76.90
2018-09-06T04:08:57.908Z,68.53
2018-09-06T04:09:32.050Z,62.70
2018-09-06T04:10:05.870Z,63.90
2018-09-06T04:10:39.756Z,67.57
2018-09-06T04:11:13.867Z,74.83
2018-09-06T04:11:47.649Z,66.63
2018-09-06T04:12:22.380Z,60.43
2018-09-06T04:12:57.042Z,64.77
2018-09-06T04:13:31.499Z,61.13
2018-09-06T04:14:05.512Z,62.80
2018-09-06T04:14:39.411Z,68.33
2018-09-06T04:15:13.256Z,62.53
2018-09-06T04:15:47.057Z,64.97
2018-09-06T04:16:20.817Z,63.80
2018-09-06T04:16:54.767Z,78.77
2018-09-06T04:17:29.162Z,61.70
2018-09-06T04:18:02.999Z,63.40
2018-09-06T04:18:37.080Z,68.13
2018-09-06T04:19:10.863Z,69.23
2018-09-06T04:19:44.552Z,66.63
2018-09-06T04:20:18.375Z,61.63
2018-09-06T04:20:52.341Z,82.97
2018-09-06T04:21:26.548Z,114.57
2018-09-06T04:22:03.810Z,132.47
2018-09-06T04:22:45.695Z,139.77
2018-09-06T04:23:20.451Z,83.40
2018-09-06T04:23:54.610Z,104.03
2018-09-06T04:24:28.611Z,113.33
2018-09-06T04:25:02.607Z,138.40
2018-09-06T04:25:37.485Z,95.87
2018-09-06T04:26:11.454Z,72.00
2018-09-06T04:26:45.293Z,66.97
2018-09-06T04:27:19.166Z,103.00
2018-09-06T04:27:53.083Z,98.77
2018-09-06T04:28:28.122Z,104.57
2018-09-06T04:29:02.138Z,114.47
2018-09-06T04:29:36.228Z,114.63
2018-09-06T04:30:10.298Z,102.53
2018-09-06T04:30:44.274Z,93.33
2018-09-06T04:31:18.109Z,95.27
2018-09-06T04:31:52.160Z,103.77
2018-09-06T04:32:26.316Z,105.63
2018-09-06T04:33:00.719Z,105.70
2018-09-06T04:33:34.605Z,105.47
2018-09-06T04:34:08.504Z,97.40
2018-09-06T04:34:42.400Z,81.53
2018-09-06T04:35:16.394Z,100.57
2018-09-06T04:35:50.236Z,99.17
2018-09-06T04:36:24.089Z,84.13
2018-09-06T04:36:58.064Z,74.23
2018-09-06T04:37:32.041Z,79.17
2018-09-06T04:38:06.072Z,108.07
2018-09-06T04:38:40.177Z,76.90
2018-09-06T04:39:14.073Z,69.50
2018-09-06T04:39:48.022Z,79.43
2018-09-06T04:40:21.949Z,103.87
2018-09-06T04:40:55.826Z,81.03
2018-09-06T04:41:29.912Z,71.43
2018-09-06T04:42:03.931Z,87.20
2018-09-06T04:42:37.882Z,64.83
2018-09-06T04:43:11.797Z,70.03
2018-09-06T04:43:45.866Z,67.77
2018-09-06T04:44:19.657Z,68.43
2018-09-06T04:44:53.480Z,73.50
2018-09-06T04:45:27.322Z,75.37
2018-09-06T04:46:01.189Z,73.93
2018-09-06T04:46:35.612Z,62.53
2018-09-06T04:47:09.570Z,61.60
2018-09-06T04:47:43.401Z,58.07
2018-09-06T04:48:17.343Z,76.87
2018-09-06T04:48:51.121Z,97.13
2018-09-06T04:49:25.238Z,89.00
2018-09-06T04:49:59.292Z,70.80
2018-09-06T04:50:33.680Z,72.40
2018-09-06T04:51:07.842Z,71.83
2018-09-06T04:51:41.960Z,67.97
2018-09-06T04:52:15.742Z,61.10
2018-09-06T04:52:49.633Z,63.00
2018-09-06T04:53:23.741Z,60.87
2018-09-06T04:53:57.775Z,58.40
2018-09-06T04:54:31.788Z,58.93
2018-09-06T04:55:06.238Z,59.67
2018-09-06T04:55:40.210Z,57.13
2018-09-06T04:56:14.099Z,56.77
2018-09-06T04:56:47.885Z,65.77
2018-09-06T04:57:21.728Z,60.77
2018-09-06T04:57:55.656Z,60.23
2018-09-06T04:58:29.997Z,57.40
2018-09-06T04:59:04.250Z,57.27
2018-09-06T04:59:38.257Z,55.80
2018-09-06T05:00:12.244Z,59.47
2018-09-06T05:00:46.136Z,56.60
2018-09-06T05:01:19.897Z,57.73
2018-09-06T05:01:53.756Z,59.03
2018-09-06T05:02:27.547Z,60.53
2018-09-06T05:03:01.509Z,58.60
2018-09-06T05:03:35.416Z,55.80
2018-09-06T05:04:09.410Z,57.03
2018-09-06T05:04:43.511Z,65.50
2018-09-06T05:05:17.365Z,72.10
2018-09-06T05:05:51.207Z,66.27
2018-09-06T05:06:25.018Z,54.97
2018-09-06T05:06:59.619Z,59.20
2018-09-06T05:07:33.711Z,55.53
2018-09-06T05:08:07.645Z,65.07
2018-09-06T05:08:41.558Z,59.10
2018-09-06T05:09:15.941Z,62.70
2018-09-06T05:09:49.673Z,90.43
2018-09-06T05:10:23.500Z,103.97
2018-09-06T05:10:57.340Z,107.37
2018-09-06T05:11:31.192Z,68.03
2018-09-06T05:12:07.936Z,75.37
2018-09-06T05:12:43.626Z,76.20
2018-09-06T05:13:17.575Z,74.77
2018-09-06T05:13:51.428Z,77.47
2018-09-06T05:14:25.506Z,90.73
2018-09-06T05:14:59.451Z,110.77
2018-09-06T05:15:33.338Z,94.77
2018-09-06T05:16:07.198Z,98.83
2018-09-06T05:16:41.201Z,77.40
2018-09-06T05:17:14.980Z,83.13
2018-09-06T05:17:48.891Z,89.33
2018-09-06T05:18:22.621Z,73.43
2018-09-06T05:18:56.536Z,67.53
2018-09-06T05:19:30.321Z,70.93
2018-09-06T05:20:05.005Z,68.70
2018-09-06T05:20:39.203Z,65.63
2018-09-06T05:21:13.065Z,64.73
2018-09-06T05:21:47.016Z,65.07
2018-09-06T05:22:20.968Z,75.83
2018-09-06T05:22:54.928Z,80.10
2018-09-06T05:23:29.272Z,88.97
2018-09-06T05:24:03.191Z,81.63
2018-09-06T05:24:37.198Z,102.00
2018-09-06T05:25:11.238Z,114.50
2018-09-06T05:25:45.080Z,108.03
2018-09-06T05:26:19.037Z,90.57
2018-09-06T05:26:53.039Z,112.97
2018-09-06T05:27:26.769Z,79.23
2018-09-06T05:28:00.628Z,70.27
2018-09-06T05:28:34.720Z,75.10
2018-09-06T05:29:08.519Z,79.63
2018-09-06T05:29:42.329Z,109.83
2018-09-06T05:30:16.212Z,93.60
2018-09-06T05:30:50.330Z,77.27
2018-09-06T05:31:24.227Z,81.50
2018-09-06T05:31:58.078Z,74.57
2018-09-06T05:32:31.988Z,93.30
2018-09-06T05:33:05.925Z,72.97
2018-09-06T05:33:39.946Z,99.03
2018-09-06T05:34:14.195Z,103.90
2018-09-06T05:34:47.990Z,112.03
2018-09-06T05:35:22.232Z,123.50
2018-09-06T05:35:56.650Z,131.47
2018-09-06T05:36:30.425Z,124.60
2018-09-06T05:37:04.920Z,101.53
2018-09-06T05:37:39.021Z,108.80
2018-09-06T05:38:13.097Z,105.83
2018-09-06T05:38:47.052Z,121.53
2018-09-06T05:39:20.972Z,101.47
2018-09-06T05:39:54.922Z,84.23
2018-09-06T05:40:28.958Z,72.53
2018-09-06T05:41:02.831Z,73.00
2018-09-06T05:41:37.106Z,70.93
2018-09-06T05:42:11.025Z,70.20
2018-09-06T05:42:44.960Z,74.80
2018-09-06T05:43:18.888Z,69.83
2018-09-06T05:43:52.813Z,69.47
2018-09-06T05:44:26.552Z,70.50
2018-09-06T05:45:00.383Z,64.77
2018-09-06T05:45:34.426Z,68.90
2018-09-06T05:46:09.908Z,73.73
2018-09-06T05:46:43.832Z,70.10
2018-09-06T05:47:19.052Z,66.13
2018-09-06T05:47:57.948Z,71.90
2018-09-06T05:48:31.817Z,71.77
2018-09-06T05:49:05.952Z,79.97
2018-09-06T05:49:39.972Z,72.63
2018-09-06T05:50:14.548Z,78.87
2018-09-06T05:50:48.588Z,100.00
2018-09-06T05:51:22.859Z,71.00
2018-09-06T05:51:59.009Z,68.50
2018-09-06T05:52:34.532Z,80.97
2018-09-06T05:53:08.577Z,77.20
2018-09-06T05:53:42.617Z,72.60
2018-09-06T05:54:17.503Z,67.67
2018-09-06T05:54:51.258Z,67.17
2018-09-06T05:55:25.125Z,69.93
2018-09-06T05:55:59.388Z,77.23
2018-09-06T05:56:33.369Z,70.23
2018-09-06T05:57:14.008Z,66.50
2018-09-06T05:57:48.035Z,70.83
2018-09-06T05:58:22.096Z,67.87
2018-09-06T05:58:55.966Z,65.80
2018-09-06T05:59:30.024Z,64.53
2018-09-06T06:00:08.719Z,65.77
2018-09-06T06:00:44.806Z,64.37
2018-09-06T06:01:18.937Z,64.63
2018-09-06T06:01:52.988Z,63.77
2018-09-06T06:02:27.081Z,77.50
2018-09-06T06:03:03.311Z,62.20
2018-09-06T06:03:37.167Z,57.77
2018-09-06T06:04:11.125Z,71.03
2018-09-06T06:05:04.201Z,80.43
2018-09-06T06:05:45.437Z,65.33
2018-09-06T06:06:23.459Z,63.60
2018-09-06T06:07:02.670Z,61.83
2018-09-06T06:07:48.038Z,71.77
2018-09-06T06:08:33.750Z,58.57
2018-09-06T06:09:08.314Z,70.70
2018-09-06T06:09:42.291Z,65.50
2018-09-06T06:10:16.216Z,71.03
2018-09-06T06:10:50.211Z,64.27
2018-09-06T06:11:24.215Z,65.63
2018-09-06T06:11:58.992Z,63.43
2018-09-06T06:12:32.931Z,62.17
2018-09-06T06:13:06.689Z,59.43
2018-09-06T06:13:40.623Z,67.50
2018-09-06T06:14:14.805Z,59.43
2018-09-06T06:14:48.769Z,63.30
2018-09-06T06:15:22.802Z,68.83
2018-09-06T06:15:57.575Z,63.67
2018-09-06T06:16:31.437Z,77.17
2018-09-06T06:17:05.228Z,70.07
2018-09-06T06:17:39.242Z,72.03
2018-09-06T06:18:13.723Z,84.13
2018-09-06T06:18:47.913Z,71.03
2018-09-06T06:19:22.016Z,57.30
2018-09-06T06:19:56.217Z,62.93
2018-09-06T06:20:30.313Z,63.13
2018-09-06T06:21:04.304Z,78.23
2018-09-06T06:21:38.220Z,71.33
2018-09-06T06:22:12.522Z,61.97
2018-09-06T06:22:46.878Z,63.93
2018-09-06T06:23:20.805Z,66.30
2018-09-06T06:23:54.931Z,62.17
2018-09-06T06:24:28.912Z,62.63
2018-09-06T06:25:02.688Z,64.07
2018-09-06T06:25:36.377Z,82.83
2018-09-06T06:26:10.354Z,63.87
2018-09-06T06:26:44.200Z,58.73
2018-09-06T06:27:18.413Z,77.13
2018-09-06T06:27:52.505Z,74.67
2018-09-06T06:28:26.721Z,64.87
2018-09-06T06:29:00.670Z,65.23
2018-09-06T06:29:34.584Z,60.07
2018-09-06T06:30:08.463Z,54.63
2018-09-06T06:30:42.248Z,66.13
2018-09-06T06:31:16.360Z,58.23
2018-09-06T06:31:50.748Z,74.57
2018-09-06T06:32:24.832Z,76.40
2018-09-06T06:32:58.774Z,68.80
2018-09-06T06:33:32.841Z,69.50
2018-09-06T06:34:06.763Z,64.30
2018-09-06T06:34:40.743Z,64.80
2018-09-06T06:35:14.943Z,67.40
2018-09-06T06:35:48.963Z,65.83
2018-09-06T06:36:23.142Z,74.00
2018-09-06T06:37:00.319Z,77.33
2018-09-06T06:37:34.391Z,89.00
2018-09-06T06:38:08.138Z,84.77
2018-09-06T06:38:42.102Z,81.97
2018-09-06T06:39:16.457Z,74.13
2018-09-06T06:39:50.858Z,62.53
2018-09-06T06:40:24.917Z,59.77
2018-09-06T06:40:59.080Z,65.43
2018-09-06T06:41:32.931Z,63.33
2018-09-06T06:42:06.829Z,58.37
2018-09-06T06:42:40.628Z,58.23
2018-09-06T06:43:14.576Z,59.43
2018-09-06T06:43:48.748Z,66.70
2018-09-06T06:44:22.741Z,62.00
2018-09-06T06:44:57.311Z,56.57
2018-09-06T06:45:31.237Z,56.57
2018-09-06T06:46:05.176Z,55.90
2018-09-06T06:46:39.048Z,57.30
2018-09-06T06:47:12.939Z,63.37
2018-09-06T06:47:46.950Z,57.80
2018-09-06T06:48:21.180Z,62.47
2018-09-06T06:48:54.901Z,63.23
2018-09-06T06:49:28.840Z,77.27
2018-09-06T06:50:02.926Z,75.20
2018-09-06T06:50:37.077Z,58.83
2018-09-06T06:51:10.921Z,53.33
2018-09-06T06:51:44.868Z,53.03
2018-09-06T06:52:19.288Z,53.90
2018-09-06T06:52:53.313Z,53.83
2018-09-06T06:53:27.445Z,52.50
2018-09-06T06:54:02.401Z,57.40
2018-09-06T06:54:36.376Z,57.37
2018-09-06T06:55:10.588Z,59.10
2018-09-06T06:55:44.392Z,58.03
2018-09-06T06:56:18.678Z,57.63
2018-09-06T06:56:52.880Z,55.73
2018-09-06T06:57:27.390Z,53.70
2018-09-06T06:58:01.680Z,58.43
2018-09-06T06:58:36.470Z,65.20
2018-09-06T06:59:10.487Z,56.77
2018-09-06T06:59:44.489Z,54.93
2018-09-06T07:00:20.104Z,52.53
2018-09-06T07:00:54.062Z,52.03
2018-09-06T07:01:28.308Z,56.97
2018-09-06T07:02:02.189Z,62.10
2018-09-06T07:02:36.221Z,56.37
2018-09-06T07:03:11.599Z,62.23
2018-09-06T07:03:45.260Z,65.53
2018-09-06T07:04:19.197Z,69.63
2018-09-06T07:04:53.658Z,66.90
2018-09-06T07:05:27.785Z,57.30
2018-09-06T07:06:01.696Z,54.53
2018-09-06T07:06:35.502Z,53.57
2018-09-06T07:07:09.668Z,55.20
2018-09-06T07:07:43.735Z,77.77
2018-09-06T07:08:17.742Z,63.60
2018-09-06T07:08:51.945Z,60.70
2018-09-06T07:09:25.796Z,63.47
2018-09-06T07:10:00.157Z,73.23
2018-09-06T07:10:33.877Z,67.57
2018-09-06T07:11:07.720Z,63.67
2018-09-06T07:11:41.607Z,77.03
2018-09-06T07:12:15.491Z,72.53
2018-09-06T07:12:49.249Z,75.37
2018-09-06T07:13:23.363Z,66.17
2018-09-06T07:13:58.039Z,61.37
2018-09-06T07:14:32.205Z,58.50
2018-09-06T07:15:06.149Z,52.07
2018-09-06T07:15:40.013Z,54.43
2018-09-06T07:16:13.976Z,59.97
2018-09-06T07:16:47.762Z,58.93
2018-09-06T07:17:21.762Z,58.73
2018-09-06T07:17:55.907Z,58.37
2018-09-06T07:18:30.118Z,59.13
2018-09-06T07:19:06.430Z,60.37
2018-09-06T07:19:40.221Z,51.07
2018-09-06T07:20:14.135Z,55.63
2018-09-06T07:20:47.988Z,71.07
2018-09-06T07:21:21.899Z,63.10